Latest Coastal Weather Observations for Mandurah

IDW60701

Issued at 6:45 am WST Saturday 2 August 2014 (issued every 10 minutes, with the page automatically refreshed every 10 minutes)

About coastal observations | Map of coastal stations | Coastal observations for WA | Marine services | Other Formats
Station Details ID: 009977 Name: MANDURAH Lat: -32.52 Lon: 115.71 Height: 3.0 m
Data from the previous 72 hours. | See also: Recent months at Mandurah
Date/Time
WST
Temp

°C
Wind Pressure Rain
since 9am
mm
Weather Cloud Vis
km
Sea
Height
m
Swell
Dir
 
Speed
knots
Gust
knots
hPa Trend Height
m
Period
s
Dir
02/06:30am 11.4 ENE 5 7 1023.7 - 0.0 - - - - - - -
02/06:00am 12.2 E 1 2 1023.8 - 0.0 - - - - - - -
02/05:30am 12.1 ENE 2 3 1023.6 - 0.0 - - - - - - -
02/05:00am 12.5 ENE 2 4 1023.6 - 0.0 - - - - - - -
02/04:30am 12.7 NNE 3 5 1023.5 - 0.0 - - - - - - -
02/04:00am 12.4 NE 4 6 1023.5 - 0.0 - - - - - - -
02/03:30am 12.1 NE 3 5 1023.6 - 0.0 - - - - - - -
02/03:00am 12.3 NE 3 4 1023.6 - 0.0 - - - - - - -
02/02:30am 12.3 N 3 4 1023.4 - 0.0 - - - - - - -
02/02:00am 12.3 NNE 5 7 1023.2 - 0.0 - - - - - - -
02/01:30am 11.9 NE 5 7 1023.5 - 0.0 - - - - - - -
02/01:00am 10.4 NE 2 3 1023.4 - 0.0 - - - - - - -
02/12:30am 10.9 NE 3 5 1023.2 - 0.0 - - - - - - -
02/12:00am 11.2 ENE 3 5 1023.4 - 0.0 - - - - - - -
 
Date/Time
WST
Temp

°C
Wind Pressure Rain
since 9am
mm
Weather Cloud Vis
km
Sea
Height
m
Swell
Dir
 
Speed
knots
Gust
knots
hPa Trend Height
m
Period
s
Dir
01/11:30pm 11.8 NE 5 8 1023.5 - 0.0 - - - - - - -
01/11:00pm 12.4 NE 8 10 1023.5 - 0.0 - - - - - - -
01/10:30pm 11.9 NE 8 10 1023.5 - 0.0 - - - - - - -
01/10:00pm 11.8 ENE 6 9 1023.9 - 0.0 - - - - - - -
01/09:30pm 11.7 ENE 5 8 1024.3 - 0.0 - - - - - - -
01/09:00pm 12.0 ENE 5 8 1024.2 - 0.0 - - - - - - -
01/08:30pm 12.3 ENE 5 8 1024.0 - 0.0 - - - - - - -
01/08:00pm 13.0 ENE 4 7 1024.2 - 0.0 - - - - - - -
01/07:30pm 13.8 ENE 5 7 1024.3 - 0.0 - - - - - - -
01/07:00pm 14.1 NE 5 6 1024.2 - 0.0 - - - - - - -
01/06:30pm 14.8 NE 5 7 1024.2 - 0.0 - - - - - - -
01/06:00pm 15.3 NNE 6 7 1023.9 - 0.0 - - - - - - -
01/05:30pm 16.0 NNE 6 8 1023.9 - 0.0 - - - - - - -
01/05:00pm 16.6 NNE 8 12 1023.7 - 0.0 - - - - - - -
01/04:30pm 16.9 NNE 10 11 1023.7 - 0.0 - - - - - - -
01/04:00pm 17.3 NE 9 12 1023.7 - 0.0 - - - - - - -
01/03:30pm 17.6 NE 9 11 1023.7 - 0.0 - - - - - - -
01/03:00pm 17.0 NNE 9 12 1023.7 - 0.0 - - - - - - -
01/02:30pm 17.9 NNE 9 13 1023.9 - 0.0 - - - - - - -
01/02:00pm 18.0 NE 8 11 1024.1 - 0.0 - - - - - - -
01/01:30pm 17.4 NE 7 12 1024.4 - 0.0 - - - - - - -
01/01:00pm 16.7 NNE 10 14 1025.0 - 0.0 - - - - - - -
01/12:30pm 16.4 ENE 8 13 1025.5 - 0.0 - - - - - - -
01/12:00pm 15.8 NE 9 14 1026.1 - 0.0 - - - - - - -
01/11:30am 15.1 ENE 10 14 1026.5 - 0.0 - - - - - - -
01/11:00am 14.2 ENE 11 16 1027.0 - 0.0 - - - - - - -
01/10:30am 13.1 ENE 12 16 1027.1 - 0.0 - - - - - - -
01/10:00am 12.3 ENE 9 15 1027.4 - 0.0 - - - - - - -
01/09:30am 10.9 ENE 10 17 1027.6 - 0.0 - - - - - - -
01/09:00am 9.5 ENE 7 12 1027.6 - 0.0 - - - - - - -
01/08:30am 8.3 ENE 8 13 1027.3 - 0.0 - - - - - - -
01/08:00am 7.4 ENE 8 12 1027.3 - 0.0 - - - - - - -
01/07:30am 5.7 E 3 6 1027.3 - 0.0 - - - - - - -
01/07:00am 5.4 E 3 4 1027.0 - 0.0 - - - - - - -
01/06:30am 5.4 ESE 3 5 1026.8 - 0.0 - - - - - - -
01/06:00am 5.4 ESE 3 4 1026.8 - 0.0 - - - - - - -
01/05:30am 5.5 ESE 4 5 1026.7 - 0.0 - - - - - - -
01/05:00am 6.0 SE 4 6 1026.7 - 0.0 - - - - - - -
01/04:30am 6.2 SE 5 7 1026.8 - 0.0 - - - - - - -
01/04:00am 6.4 SE 5 8 1026.8 - 0.0 - - - - - - -
01/03:30am 6.3 ESE 5 7 1027.0 - 0.0 - - - - - - -
01/03:00am 6.4 ESE 6 8 1027.3 - 0.0 - - - - - - -
01/02:30am 6.7 ESE 5 7 1027.3 - 0.0 - - - - - - -
01/02:00am 7.1 E 4 6 1027.5 - 0.0 - - - - - - -
01/01:30am 7.7 E 4 6 1027.8 - 0.0 - - - - - - -
01/01:00am 7.6 ESE 4 6 1028.0 - 0.0 - - - - - - -
01/12:30am 8.0 ESE 4 6 1028.1 - 0.0 - - - - - - -
01/12:00am 8.2 ESE 4 6 1028.3 - 0.0 - - - - - - -
 
Date/Time
WST
Temp

°C
Wind Pressure Rain
since 9am
mm
Weather Cloud Vis
km
Sea
Height
m
Swell
Dir
 
Speed
knots
Gust
knots
hPa Trend Height
m
Period
s
Dir
31/11:30pm 8.4 ESE 4 7 1028.2 - 0.0 - - - - - - -
31/11:00pm 8.5 E 3 5 1028.1 - 0.0 - - - - - - -
31/10:30pm 8.8 ESE 2 4 1028.1 - 0.0 - - - - - - -
31/10:00pm 9.4 E 4 7 1028.0 - 0.0 - - - - - - -
31/09:30pm 9.6 E 4 7 1028.1 - 0.0 - - - - - - -
31/09:00pm 10.1 E 5 7 1028.0 - 0.0 - - - - - - -
31/08:30pm 10.8 E 5 10 1027.9 - 0.0 - - - - - - -
31/08:00pm 11.3 E 5 7 1027.6 - 0.0 - - - - - - -
31/07:30pm 11.6 E 6 8 1027.5 - 0.0 - - - - - - -
31/07:00pm 11.6 E 3 5 1027.3 - 0.0 - - - - - - -
31/06:30pm 12.5 ESE 3 5 1027.0 - 0.0 - - - - - - -
31/06:00pm 13.5 SE 3 4 1026.6 - 0.0 - - - - - - -
31/05:30pm 14.2 SSE 4 7 1026.3 - 0.0 - - - - - - -
31/05:00pm 14.6 S 5 8 1026.1 - 0.0 - - - - - - -
31/04:30pm 14.8 SSE 5 7 1026.0 - 0.0 - - - - - - -
31/04:00pm 14.8 S 7 10 1026.0 - 0.0 - - - - - - -
31/03:30pm 14.9 S 6 8 1026.1 - 0.0 - - - - - - -
31/03:00pm 14.6 S 6 9 1026.0 - 0.0 - - - - - - -
31/02:30pm 14.7 SSE 4 8 1026.2 - 0.0 - - - - - - -
31/02:00pm 14.9 SE 5 9 1026.4 - 0.0 - - - - - - -
31/01:30pm 15.2 ESE 5 7 1026.6 - 0.0 - - - - - - -
31/01:00pm 14.6 SE 3 5 1026.9 - 0.0 - - - - - - -
31/12:30pm 13.6 SSE 5 9 1027.4 - 0.0 - - - - - - -
31/12:00pm 14.0 E 4 9 1027.7 - 0.0 - - - - - - -
31/11:30am 13.3 ESE 5 7 1028.0 - 0.0 - - - - - - -
31/11:00am 12.8 SE 6 11 1028.1 - 0.0 - - - - - - -
31/10:30am 12.5 SSE 7 11 1028.1 - 0.0 - - - - - - -
31/10:00am 12.5 SSE 7 10 1028.0 - 0.0 - - - - - - -
31/09:30am 12.4 SSE 5 8 1027.7 - 0.0 - - - - - - -
31/09:00am 12.1 SSE 9 14 1027.5 - 0.0 - - - - - - -
31/08:30am 12.0 SSE 7 12 1027.1 - 0.0 - - - - - - -
31/08:00am 11.9 SSE 8 15 1026.7 - 0.0 - - - - - - -
31/07:30am 11.5 SSE 7 11 1026.2 - 0.0 - - - - - - -
31/07:00am 11.6 SSE 6 10 1025.6 - 0.0 - - - - - - -
31/06:30am 11.7 S 7 11 1025.3 - 0.0 - - - - - - -
31/06:00am 11.8 S 8 15 1024.7 - 0.0 - - - - - - -
31/05:30am 11.9 S 9 16 1024.4 - 0.0 - - - - - - -
31/05:00am 12.1 SSE 8 14 1024.0 - 0.0 - - - - - - -
31/04:30am 12.6 SSE 9 14 1024.1 - 0.0 - - - - - - -
31/04:00am 12.4 SSE 8 14 1024.1 - 0.0 - - - - - - -
31/03:30am 12.7 SSE 8 13 1024.1 - 0.0 - - - - - - -
31/03:00am 12.5 SSE 9 14 1023.9 - 0.0 - - - - - - -
31/02:30am 12.7 SSE 9 15 1023.7 - 0.0 - - - - - - -
31/02:00am 13.4 S 10 16 1023.4 - 0.0 - - - - - - -
31/01:30am 13.9 S 11 20 1023.1 - 0.0 - - - - - - -
31/01:00am 14.1 S 9 14 1022.8 - 0.0 - - - - - - -
31/12:30am 14.6 S 10 14 1022.7 - 0.0 - - - - - - -
31/12:00am 14.4 S 12 19 1022.6 - 0.0 - - - - - - -
 
Date/Time
WST
Temp

°C
Wind Pressure Rain
since 9am
mm
Weather Cloud Vis
km
Sea
Height
m
Swell
Dir
 
Speed
knots
Gust
knots
hPa Trend Height
m
Period
s
Dir
30/11:30pm 14.9 SSW 9 15 1022.5 - 0.0 - - - - - - -
30/11:00pm 14.9 S 7 12 1022.4 - 0.0 - - - - - - -
30/10:30pm 15.1 S 5 7 1022.2 - 0.0 - - - - - - -
30/10:00pm 14.7 S 4 8 1022.2 - 0.0 - - - - - - -
30/09:30pm 15.0 S 3 4 1022.1 - 0.0 - - - - - - -
30/09:00pm 15.0 S 4 6 1021.9 - 0.0 - - - - - - -
30/08:30pm 15.0 S 2 2 1021.8 - 0.0 - - - - - - -
30/08:00pm 15.2 S 5 6 1021.7 - 0.0 - - - - - - -
30/07:30pm 15.4 SSW 7 11 1021.8 - 0.0 - - - - - - -
30/07:00pm 15.7 SW 12 18 1021.5 - 0.0 - - - - - - -
30/06:30pm 15.8 WNW 9 11 1021.4 - 0.0 - - - - - - -
30/06:00pm 15.5 W 11 14 1021.4 - 0.0 - - - - - - -
30/05:30pm 16.7 WSW 9 12 1021.2 - 0.0 - - - - - - -
30/05:00pm 17.0 WNW 12 16 1020.8 - 0.0 - - - - - - -
30/04:30pm 17.4 W 7 12 1021.0 - 0.0 - - - - - - -
30/04:00pm 17.8 W 9 14 1020.8 - 0.0 - - - - - - -
30/03:30pm 17.7 W 12 15 1020.6 - 0.0 - - - - - - -
30/03:00pm 18.1 W 11 15 1020.7 - 0.0 - - - - - - -
30/02:30pm 18.2 W 8 11 1020.6 - 0.0 - - - - - - -
30/02:00pm 17.8 W 9 12 1020.6 - 0.0 - - - - - - -
30/01:30pm 17.4 W 9 12 1020.7 - 0.0 - - - - - - -
30/01:00pm 17.7 W 14 18 1020.9 - 0.0 - - - - - - -
30/12:30pm 17.6 W 14 20 1021.0 - 0.0 - - - - - - -
30/12:00pm 17.6 W 12 19 1021.2 - 0.0 - - - - - - -
30/11:30am 17.4 WNW 11 15 1021.3 - 0.0 - - - - - - -
30/11:00am 17.6 WNW 9 12 1021.6 - 0.0 - - - - - - -
30/10:30am 17.3 W 8 11 1021.7 - 0.0 - - - - - - -
30/10:00am 17.1 W 9 11 1021.9 - 0.0 - - - - - - -
30/09:30am 16.9 W 11 16 1021.9 - 0.0 - - - - - - -
30/09:00am 17.0 WNW 11 14 1021.7 - 0.4 - - - - - - -
30/08:30am 16.8 WNW 9 13 1021.4 - 0.4 - - - - - - -
30/08:00am 16.6 NW 11 13 1021.4 - 0.4 - - - - - - -
30/07:30am 16.4 W 8 12 1021.2 - 0.4 - - - - - - -
30/07:00am 16.5 WNW 11 15 1021.2 - 0.4 - - - - - - -

Other Formats:

Comma delimited format used in spreadsheet applications
http://www.bom.gov.au/fwo/IDW60701/IDW60701.94605.axf

JavaScript Object Notation format (JSON) in row-major order
http://www.bom.gov.au/fwo/IDW60701/IDW60701.94605.json